createdAt,value
2019-01-02T00:00:08.163Z,99063.72
2019-01-02T00:01:15.953Z,99067.48
2019-01-02T00:02:18.518Z,99067.48
2019-01-02T00:03:24.693Z,99060.19
2019-01-02T00:04:30.979Z,99063.15
2019-01-02T00:05:41.477Z,99062.89
2019-01-02T00:06:44.408Z,99075.23
2019-01-02T00:07:47.752Z,99060.98
2019-01-02T00:08:50.577Z,99060.17
2019-01-02T00:09:53.391Z,99066.92
2019-01-02T00:11:02.883Z,99059.39
2019-01-02T00:12:05.738Z,99061.28
2019-01-02T00:13:09.294Z,99060.74
2019-01-02T00:14:12.540Z,99074.22
2019-01-02T00:15:15.368Z,99074.22
2019-01-02T00:16:18.442Z,99041.16
2019-01-02T00:17:23.641Z,99062.95
2019-01-02T00:18:30.463Z,99073.73
2019-01-02T00:19:33.080Z,99072.37
2019-01-02T00:20:36.386Z,99072.37
2019-01-02T00:21:39.163Z,99072.37
2019-01-02T00:22:43.386Z,99072.37
2019-01-02T00:23:49.448Z,99068.06
2019-01-02T00:24:52.943Z,99078.56
2019-01-02T00:25:55.870Z,99078.56
2019-01-02T00:27:02.229Z,99069.16
2019-01-02T00:28:07.466Z,99075.62
2019-01-02T00:29:10.327Z,99071.00
2019-01-02T00:30:13.243Z,99062.95
2019-01-02T00:31:18.153Z,99062.95
2019-01-02T00:32:21.017Z,99069.67
2019-01-02T00:33:24.281Z,99075.61
2019-01-02T00:34:27.590Z,99075.61
2019-01-02T00:35:30.814Z,99065.39
2019-01-02T00:36:34.016Z,99065.39
2019-01-02T00:37:37.711Z,99072.91
2019-01-02T00:38:40.705Z,99080.70
2019-01-02T00:39:44.441Z,99087.15
2019-01-02T00:40:47.597Z,99082.58
2019-01-02T00:41:50.456Z,99089.55
2019-01-02T00:42:56.117Z,99088.71
2019-01-02T00:43:59.665Z,99077.66
2019-01-02T00:45:02.506Z,99080.40
2019-01-02T00:46:05.940Z,99078.25
2019-01-02T00:47:09.036Z,99078.25
2019-01-02T00:48:12.285Z,99084.16
2019-01-02T00:49:18.433Z,99081.47
2019-01-02T00:50:24.883Z,99072.85
2019-01-02T00:51:27.747Z,99065.55
2019-01-02T00:52:31.612Z,99068.24
2019-01-02T00:53:34.510Z,99068.51
2019-01-02T00:54:37.434Z,99070.91
2019-01-02T00:55:40.545Z,99075.78
2019-01-02T00:56:43.815Z,99093.23
2019-01-02T00:57:47.228Z,99093.23
2019-01-02T00:58:51.910Z,99080.31
2019-01-02T00:59:54.804Z,99078.97
2019-01-02T01:00:57.998Z,99078.97
2019-01-02T01:02:01.269Z,99083.57
2019-01-02T01:03:04.494Z,99097.28
2019-01-02T01:04:08.056Z,99097.47
2019-01-02T01:05:12.948Z,99091.58
2019-01-02T01:06:16.453Z,99091.58
2019-01-02T01:07:19.408Z,99095.09
2019-01-02T01:08:22.225Z,99102.08
2019-01-02T01:09:25.453Z,99102.08
2019-01-02T01:10:28.216Z,99091.59
2019-01-02T01:11:31.495Z,99099.93
2019-01-02T01:12:34.752Z,99101.50
2019-01-02T01:13:37.728Z,99090.20
2019-01-02T01:14:41.000Z,99100.68
2019-01-02T01:15:44.110Z,99085.34
2019-01-02T01:16:47.009Z,99085.34
2019-01-02T01:17:50.960Z,99090.70
2019-01-02T01:18:53.876Z,99097.69
2019-01-02T01:19:56.707Z,99076.13
2019-01-02T01:21:00.169Z,99087.16
2019-01-02T01:22:03.092Z,99090.59
2019-01-02T01:23:06.004Z,99088.97
2019-01-02T01:24:09.574Z,99088.45
2019-01-02T01:25:12.515Z,99088.45
2019-01-02T01:26:15.889Z,99098.90
2019-01-02T01:27:19.126Z,99104.25
2019-01-02T01:28:22.014Z,99104.25
2019-01-02T01:29:25.016Z,99105.00
2019-01-02T01:30:28.532Z,99096.13
2019-01-02T01:31:31.474Z,99096.13
2019-01-02T01:32:34.392Z,99102.55
2019-01-02T01:33:37.300Z,99101.75
2019-01-02T01:34:40.447Z,99101.75
2019-01-02T01:35:43.272Z,99107.30
2019-01-02T01:36:46.496Z,99110.02
2019-01-02T01:37:49.786Z,99106.84
2019-01-02T01:38:53.193Z,99106.84
2019-01-02T01:39:56.039Z,99105.41
2019-01-02T01:40:59.328Z,99114.30
2019-01-02T01:42:02.292Z,99112.67
2019-01-02T01:43:05.468Z,99108.92
2019-01-02T01:44:08.792Z,99107.27
2019-01-02T01:45:11.663Z,99107.30
2019-01-02T01:46:17.405Z,99107.30
2019-01-02T01:47:20.667Z,99110.59
2019-01-02T01:48:26.466Z,99117.63
2019-01-02T01:49:29.709Z,99115.22
2019-01-02T01:50:32.626Z,99115.22
2019-01-02T01:51:35.792Z,99108.95
2019-01-02T01:52:38.642Z,99109.24
2019-01-02T01:53:41.537Z,99100.26
2019-01-02T01:54:44.734Z,99100.26
2019-01-02T01:55:47.898Z,99112.73
2019-01-02T01:56:50.736Z,99114.33
2019-01-02T01:57:53.756Z,99107.92
2019-01-02T01:58:56.569Z,99107.92
2019-01-02T01:59:59.459Z,99107.35
2019-01-02T02:01:03.514Z,99116.56
2019-01-02T02:02:07.348Z,99118.73
2019-01-02T02:03:10.528Z,99116.30
2019-01-02T02:04:13.812Z,99124.42
2019-01-02T02:05:16.707Z,99124.42
2019-01-02T02:06:19.467Z,99138.42
2019-01-02T02:07:22.303Z,99138.42
2019-01-02T02:08:25.425Z,99134.30
2019-01-02T02:09:28.372Z,99134.27
2019-01-02T02:10:31.349Z,99134.27
2019-01-02T02:11:34.514Z,99134.25
2019-01-02T02:12:37.404Z,99134.25
2019-01-02T02:13:40.292Z,99131.58
2019-01-02T02:14:43.619Z,99131.58
2019-01-02T02:15:46.737Z,99127.61
2019-01-02T02:16:49.602Z,99112.30
2019-01-02T02:17:52.723Z,99138.98
2019-01-02T02:18:55.650Z,99122.85
2019-01-02T02:19:58.413Z,99122.85
2019-01-02T02:21:01.952Z,99132.81
2019-01-02T02:22:04.827Z,99132.81
2019-01-02T02:23:07.673Z,99139.83
2019-01-02T02:24:10.980Z,99139.83
2019-01-02T02:25:14.061Z,99137.91
2019-01-02T02:26:16.867Z,99129.58
2019-01-02T02:27:20.340Z,99124.77
2019-01-02T02:28:23.253Z,99116.41
2019-01-02T02:29:26.555Z,99120.70
2019-01-02T02:30:29.777Z,99120.70
2019-01-02T02:31:32.588Z,99107.00
2019-01-02T02:32:35.735Z,99107.00
2019-01-02T02:33:38.855Z,99115.09
2019-01-02T02:34:42.547Z,99122.13
2019-01-02T02:35:45.503Z,99121.07
2019-01-02T02:36:48.786Z,99122.41
2019-01-02T02:37:51.938Z,99122.41
2019-01-02T02:38:54.944Z,99115.69
2019-01-02T02:39:59.688Z,99106.02
2019-01-02T02:41:03.185Z,99106.02
2019-01-02T02:42:06.258Z,99113.56
2019-01-02T02:43:09.358Z,99116.23
2019-01-02T02:44:12.134Z,99121.61
2019-01-02T02:45:15.763Z,99114.32
2019-01-02T02:46:19.366Z,99123.77
2019-01-02T02:47:22.258Z,99115.17
2019-01-02T02:48:25.412Z,99115.17
2019-01-02T02:49:28.619Z,99125.67
2019-01-02T02:50:31.468Z,99121.12
2019-01-02T02:51:36.871Z,99121.12
2019-01-02T02:52:39.510Z,99123.98
2019-01-02T02:53:42.307Z,99126.16
2019-01-02T02:54:46.842Z,99120.16
2019-01-02T02:55:50.938Z,99121.79
2019-01-02T02:56:54.624Z,99125.86
2019-01-02T02:57:58.094Z,99125.86
2019-01-02T02:59:00.972Z,99140.96
2019-01-02T03:00:04.043Z,99144.22
2019-01-02T03:01:06.971Z,99132.11
2019-01-02T03:02:10.114Z,99129.19
2019-01-02T03:03:13.274Z,99141.53
2019-01-02T03:04:16.545Z,99129.19
2019-01-02T03:05:19.716Z,99129.19
2019-01-02T03:06:24.087Z,99124.09
2019-01-02T03:07:27.237Z,99126.24
2019-01-02T03:08:30.639Z,99140.27
2019-01-02T03:09:34.301Z,99140.27
2019-01-02T03:10:37.495Z,99140.78
2019-01-02T03:11:40.671Z,99137.58
2019-01-02T03:12:46.038Z,99145.10
2019-01-02T03:13:49.268Z,99140.27
2019-01-02T03:14:52.379Z,99134.05
2019-01-02T03:15:55.400Z,99145.16
2019-01-02T03:17:01.889Z,99145.16
2019-01-02T03:18:04.980Z,99152.66
2019-01-02T03:19:07.918Z,99144.33
2019-01-02T03:20:11.079Z,99144.33
2019-01-02T03:21:14.197Z,99140.30
2019-01-02T03:22:17.044Z,99136.44
2019-01-02T03:23:20.472Z,99136.23
2019-01-02T03:24:23.382Z,99151.52
2019-01-02T03:25:26.253Z,99151.52
2019-01-02T03:26:29.387Z,99137.58
2019-01-02T03:27:32.159Z,99153.44
2019-01-02T03:28:35.742Z,99148.03
2019-01-02T03:29:42.347Z,99139.36
2019-01-02T03:30:48.244Z,99139.36
2019-01-02T03:31:51.572Z,99140.16
2019-01-02T03:32:54.824Z,99149.86
2019-01-02T03:33:57.949Z,99146.08
2019-01-02T03:35:00.721Z,99143.39
2019-01-02T03:36:03.868Z,99144.22
2019-01-02T03:37:06.624Z,99136.64
2019-01-02T03:38:09.536Z,99156.59
2019-01-02T03:39:12.761Z,99143.13
2019-01-02T03:40:15.879Z,99157.95
2019-01-02T03:41:18.973Z,99144.20
2019-01-02T03:42:23.261Z,99147.42
2019-01-02T03:43:26.037Z,99145.53
2019-01-02T03:44:28.844Z,99145.53
2019-01-02T03:45:31.765Z,99149.60
2019-01-02T03:46:34.723Z,99152.55
2019-01-02T03:47:37.626Z,99152.55
2019-01-02T03:48:40.717Z,99151.49
2019-01-02T03:49:43.677Z,99154.47
2019-01-02T03:50:46.664Z,99147.42
2019-01-02T03:51:49.515Z,99144.20
2019-01-02T03:52:52.909Z,99151.49
2019-01-02T03:53:57.887Z,99150.17
2019-01-02T03:55:01.205Z,99150.17
2019-01-02T03:56:04.188Z,99148.52
2019-01-02T03:57:07.338Z,99148.52
2019-01-02T03:58:10.111Z,99153.36
2019-01-02T03:59:13.021Z,99153.36
2019-01-02T04:00:16.045Z,99156.81
2019-01-02T04:01:19.446Z,99162.97
2019-01-02T04:02:22.354Z,99162.97
2019-01-02T04:03:25.138Z,99170.44
2019-01-02T04:04:28.251Z,99160.45
2019-01-02T04:05:31.066Z,99181.94
2019-01-02T04:06:33.848Z,99180.85
2019-01-02T04:07:37.005Z,99181.66
2019-01-02T04:08:40.726Z,99193.47
2019-01-02T04:09:43.577Z,99195.10
2019-01-02T04:10:46.518Z,99195.08
2019-01-02T04:11:49.334Z,99197.41
2019-01-02T04:12:52.159Z,99194.12
2019-01-02T04:13:55.496Z,99194.12
2019-01-02T04:14:58.317Z,99189.94
2019-01-02T04:16:01.222Z,99190.56
2019-01-02T04:17:04.029Z,99190.50
2019-01-02T04:18:06.786Z,99182.66
2019-01-02T04:19:09.567Z,99185.55
2019-01-02T04:20:12.897Z,99181.23
2019-01-02T04:21:15.754Z,99178.80
2019-01-02T04:22:18.522Z,99174.16
2019-01-02T04:23:21.321Z,99168.20
2019-01-02T04:24:24.695Z,99168.20
2019-01-02T04:25:27.473Z,99165.77
2019-01-02T04:26:30.625Z,99165.77
2019-01-02T04:27:34.058Z,99172.45
2019-01-02T04:28:37.059Z,99172.95
2019-01-02T04:29:39.843Z,99170.56
2019-01-02T04:30:42.735Z,99166.83
2019-01-02T04:31:45.518Z,99171.25
2019-01-02T04:32:48.627Z,99167.26
2019-01-02T04:33:53.746Z,99154.70
2019-01-02T04:34:57.387Z,99154.70
2019-01-02T04:36:00.327Z,99166.06
2019-01-02T04:37:03.400Z,99172.48
2019-01-02T04:38:06.178Z,99166.89
2019-01-02T04:39:09.760Z,99157.67
2019-01-02T04:40:13.153Z,99163.95
2019-01-02T04:41:16.059Z,99163.16
2019-01-02T04:42:18.946Z,99165.91
2019-01-02T04:43:23.790Z,99162.97
2019-01-02T04:44:26.778Z,99168.41
2019-01-02T04:45:29.987Z,99161.69
2019-01-02T04:46:32.891Z,99173.23
2019-01-02T04:47:35.779Z,99170.36
2019-01-02T04:48:38.649Z,99163.94
2019-01-02T04:49:41.442Z,99168.80
2019-01-02T04:50:44.341Z,99168.80
2019-01-02T04:51:48.251Z,99171.23
2019-01-02T04:52:51.070Z,99174.49
2019-01-02T04:53:53.954Z,99171.33
2019-01-02T04:54:57.109Z,99172.67
2019-01-02T04:56:00.307Z,99171.33
2019-01-02T04:57:03.854Z,99171.58
2019-01-02T04:58:10.089Z,99175.36
2019-01-02T04:59:12.920Z,99167.52
2019-01-02T05:00:15.800Z,99164.31
2019-01-02T05:01:18.813Z,99164.31
2019-01-02T05:02:21.747Z,99171.97
2019-01-02T05:03:25.159Z,99171.97
2019-01-02T05:04:28.475Z,99162.65
2019-01-02T05:05:31.698Z,99168.34
2019-01-02T05:06:34.635Z,99168.34
2019-01-02T05:07:37.578Z,99164.83
2019-01-02T05:08:40.637Z,99171.38
2019-01-02T05:09:43.896Z,99162.48
2019-01-02T05:10:47.343Z,99162.48
2019-01-02T05:11:50.118Z,99165.45
2019-01-02T05:12:53.067Z,99164.95
2019-01-02T05:13:56.035Z,99159.28
2019-01-02T05:14:58.833Z,99168.72
2019-01-02T05:16:01.614Z,99170.03
2019-01-02T05:17:04.910Z,99169.23
2019-01-02T05:18:07.766Z,99169.23
2019-01-02T05:19:10.814Z,99165.52
2019-01-02T05:20:13.593Z,99172.55
2019-01-02T05:21:16.375Z,99165.58
2019-01-02T05:22:19.670Z,99164.78
2019-01-02T05:23:22.493Z,99168.52
2019-01-02T05:24:25.325Z,99159.69
2019-01-02T05:25:28.235Z,99163.45
2019-01-02T05:26:31.024Z,99169.92
2019-01-02T05:27:33.957Z,99169.92
2019-01-02T05:28:37.347Z,99177.48
2019-01-02T05:29:40.242Z,99168.61
2019-01-02T05:30:43.468Z,99173.50
2019-01-02T05:31:46.597Z,99178.05
2019-01-02T05:32:49.569Z,99189.64
2019-01-02T05:33:52.456Z,99181.03
2019-01-02T05:34:55.682Z,99181.03
2019-01-02T05:35:58.562Z,99172.16
2019-01-02T05:37:01.591Z,99172.16
2019-01-02T05:38:07.894Z,99178.34
2019-01-02T05:39:10.750Z,99189.05
2019-01-02T05:40:16.030Z,99188.75
2019-01-02T05:41:20.759Z,99188.24
2019-01-02T05:42:23.784Z,99178.56
2019-01-02T05:43:26.667Z,99189.05
2019-01-02T05:44:29.480Z,99189.59
2019-01-02T05:45:32.385Z,99190.96
2019-01-02T05:46:35.131Z,99190.98
2019-01-02T05:47:38.399Z,99187.70
2019-01-02T05:48:41.874Z,99187.70
2019-01-02T05:49:44.771Z,99188.50
2019-01-02T05:50:47.696Z,99194.68
2019-01-02T05:51:50.705Z,99174.98
2019-01-02T05:52:53.539Z,99180.94
2019-01-02T05:53:56.779Z,99193.91
2019-01-02T05:54:59.584Z,99193.91
2019-01-02T05:56:02.411Z,99199.28
2019-01-02T05:57:06.126Z,99195.83
2019-01-02T05:58:11.779Z,99202.84
2019-01-02T05:59:14.917Z,99202.32
2019-01-02T06:00:17.853Z,99203.61
2019-01-02T06:01:21.210Z,99206.36
2019-01-02T06:02:24.226Z,99197.94
2019-01-02T06:03:27.040Z,99199.86
2019-01-02T06:04:29.952Z,99199.86
2019-01-02T06:05:33.197Z,99199.61
2019-01-02T06:06:36.188Z,99199.34
2019-01-02T06:07:41.088Z,99203.41
2019-01-02T06:08:43.533Z,99198.26
2019-01-02T06:09:46.536Z,99198.26
2019-01-02T06:10:49.438Z,99202.87
2019-01-02T06:11:54.977Z,99193.51
2019-01-02T06:12:57.941Z,99198.92
2019-01-02T06:14:00.781Z,99202.16
2019-01-02T06:15:03.599Z,99195.94
2019-01-02T06:16:09.437Z,99213.43
2019-01-02T06:17:12.206Z,99209.39
2019-01-02T06:18:15.558Z,99211.28
2019-01-02T06:19:18.474Z,99207.53
2019-01-02T06:20:21.434Z,99209.68
2019-01-02T06:21:24.239Z,99205.07
2019-01-02T06:22:27.013Z,99205.07
2019-01-02T06:23:29.940Z,99208.59
2019-01-02T06:24:33.046Z,99216.92
2019-01-02T06:25:36.117Z,99228.23
2019-01-02T06:26:38.988Z,99223.91
2019-01-02T06:27:41.919Z,99225.51
2019-01-02T06:28:44.926Z,99224.45
2019-01-02T06:29:48.469Z,99216.09
2019-01-02T06:44:29.334Z,99213.89
2019-01-02T06:45:32.310Z,99217.86
2019-01-02T06:46:35.392Z,99221.90
2019-01-02T06:47:38.306Z,99215.40
2019-01-02T06:48:41.094Z,99216.72
2019-01-02T06:49:44.316Z,99216.72
2019-01-02T06:50:47.142Z,99216.20
2019-01-02T06:51:50.110Z,99229.05
2019-01-02T06:52:53.095Z,99222.35
2019-01-02T06:54:03.582Z,99231.00
2019-01-02T06:55:06.871Z,99232.38
2019-01-02T06:56:09.739Z,99234.00
2019-01-02T06:57:14.844Z,99234.55
2019-01-02T06:58:18.782Z,99237.78
2019-01-02T06:59:21.667Z,99234.26
2019-01-02T07:00:24.574Z,99231.09
2019-01-02T07:01:27.615Z,99237.84
2019-01-02T07:02:30.501Z,99242.39
2019-01-02T07:03:33.401Z,99243.73
2019-01-02T07:04:36.397Z,99248.58
2019-01-02T07:05:39.332Z,99248.58
2019-01-02T07:06:42.214Z,99249.34
2019-01-02T07:07:45.395Z,99245.86
2019-01-02T07:08:48.277Z,99245.86
2019-01-02T07:09:51.127Z,99249.12
2019-01-02T07:10:53.920Z,99249.38
2019-01-02T07:11:56.722Z,99255.84
2019-01-02T07:12:59.769Z,99255.84
2019-01-02T07:14:03.040Z,99260.23
2019-01-02T07:15:05.854Z,99253.85
2019-01-02T07:16:08.780Z,99253.85
2019-01-02T07:17:11.548Z,99260.89
2019-01-02T07:18:14.669Z,99265.48
2019-01-02T07:19:17.592Z,99265.48
2019-01-02T07:20:20.879Z,99270.86
2019-01-02T07:21:23.717Z,99272.17
2019-01-02T07:22:27.191Z,99264.64
2019-01-02T07:23:29.978Z,99270.61
2019-01-02T07:24:32.901Z,99270.86
2019-01-02T07:25:35.675Z,99272.17
2019-01-02T07:26:38.753Z,99271.34
2019-01-02T07:27:41.565Z,99272.17
2019-01-02T07:28:53.139Z,99276.98
2019-01-02T07:30:04.842Z,99271.09
2019-01-02T07:31:07.673Z,99285.92
2019-01-02T07:32:10.455Z,99274.58
2019-01-02T07:33:14.773Z,99289.06
2019-01-02T07:34:17.551Z,99286.37
2019-01-02T07:35:20.476Z,99289.34
2019-01-02T07:36:23.341Z,99295.81
2019-01-02T07:37:27.000Z,99300.14
2019-01-02T07:38:30.353Z,99293.41
2019-01-02T07:39:33.495Z,99293.41
2019-01-02T07:40:36.342Z,99294.50
2019-01-02T07:41:39.199Z,99294.50
2019-01-02T07:42:44.272Z,99296.11
2019-01-02T07:43:47.136Z,99286.17
2019-01-02T07:44:50.145Z,99291.55
2019-01-02T07:45:53.254Z,99291.55
2019-01-02T07:46:56.032Z,99290.21
2019-01-02T07:47:58.825Z,99301.01
2019-01-02T07:49:01.675Z,99294.53
2019-01-02T07:50:04.657Z,99294.53
2019-01-02T07:51:07.565Z,99301.01
2019-01-02T07:52:10.734Z,99296.20
2019-01-02T07:53:13.497Z,99299.15
2019-01-02T07:54:16.257Z,99300.23
2019-01-02T07:55:19.042Z,99300.23
2019-01-02T07:56:22.590Z,99304.84
2019-01-02T07:57:26.631Z,99309.72
2019-01-02T07:58:32.550Z,99310.78
2019-01-02T07:59:35.594Z,99304.88
2019-01-02T08:00:40.633Z,99310.75
2019-01-02T08:01:43.523Z,99305.94
2019-01-02T08:02:48.020Z,99298.16
2019-01-02T08:03:57.239Z,99307.55
2019-01-02T08:05:00.248Z,99310.72
2019-01-02T08:06:03.069Z,99314.47
2019-01-02T08:07:05.867Z,99317.73
2019-01-02T08:08:08.770Z,99315.30
2019-01-02T08:09:11.603Z,99321.55
2019-01-02T08:10:18.070Z,99312.95
2019-01-02T08:11:20.965Z,99312.95
2019-01-02T08:12:23.891Z,99311.16
2019-01-02T08:13:26.820Z,99321.44
2019-01-02T08:14:30.076Z,99314.72
2019-01-02T08:15:33.103Z,99314.42
2019-01-02T08:16:36.261Z,99317.92
2019-01-02T08:17:39.046Z,99309.55
2019-01-02T08:18:41.980Z,99317.09
2019-01-02T08:19:44.759Z,99312.25
2019-01-02T08:20:47.600Z,99314.72
2019-01-02T08:21:50.401Z,99314.72
2019-01-02T08:22:53.481Z,99320.61
2019-01-02T08:23:56.461Z,99320.13
2019-01-02T08:24:59.327Z,99316.83
2019-01-02T08:26:02.102Z,99320.32
2019-01-02T08:27:07.410Z,99327.89
2019-01-02T08:28:10.272Z,99327.89
2019-01-02T08:29:13.377Z,99312.05
2019-01-02T08:30:16.140Z,99315.58
2019-01-02T08:31:19.463Z,99316.12
2019-01-02T08:32:22.254Z,99305.55
2019-01-02T08:33:25.045Z,99324.42
2019-01-02T08:34:27.998Z,99310.67
2019-01-02T08:35:31.198Z,99310.67
2019-01-02T08:36:34.043Z,99323.02
2019-01-02T08:37:38.747Z,99323.02
2019-01-02T08:38:41.514Z,99326.51
2019-01-02T08:39:47.714Z,99323.11
2019-01-02T08:40:51.082Z,99323.70
2019-01-02T08:41:54.254Z,99323.70
2019-01-02T08:43:00.094Z,99330.73
2019-01-02T08:44:02.915Z,99330.98
2019-01-02T08:45:06.010Z,99316.44
2019-01-02T08:46:08.882Z,99317.01
2019-01-02T08:47:11.806Z,99314.06
2019-01-02T08:48:15.221Z,99303.86
2019-01-02T08:49:18.186Z,99311.97
2019-01-02T08:50:25.255Z,99311.97
2019-01-02T08:51:26.105Z,99317.35
2019-01-02T08:52:32.261Z,99315.98
2019-01-02T08:53:35.469Z,99310.59
2019-01-02T08:54:39.801Z,99312.45
2019-01-02T08:55:42.609Z,99319.25
2019-01-02T08:56:48.536Z,99319.78
2019-01-02T08:57:51.332Z,99319.78
2019-01-02T08:58:54.237Z,99316.30
2019-01-02T08:59:57.523Z,99313.34
2019-01-02T09:01:00.713Z,99328.95
2019-01-02T09:02:05.354Z,99328.95
2019-01-02T09:03:08.710Z,99309.84
2019-01-02T09:04:11.657Z,99309.84
2019-01-02T09:05:14.478Z,99319.30
2019-01-02T09:06:21.966Z,99319.30
2019-01-02T09:07:24.872Z,99307.93
2019-01-02T09:08:27.728Z,99320.81
2019-01-02T09:09:30.523Z,99317.01
2019-01-02T09:10:33.801Z,99323.22
2019-01-02T09:11:36.581Z,99325.60
2019-01-02T09:12:41.658Z,99324.73
2019-01-02T09:13:44.759Z,99330.41
2019-01-02T09:14:47.678Z,99343.10
2019-01-02T09:15:50.893Z,99340.13
2019-01-02T09:16:54.195Z,99355.22
2019-01-02T09:17:57.084Z,99346.86
2019-01-02T09:19:03.022Z,99348.29
2019-01-02T09:20:06.287Z,99348.29
2019-01-02T09:21:09.149Z,99360.86
2019-01-02T09:22:14.861Z,99365.19
2019-01-02T09:23:18.296Z,99347.69
2019-01-02T09:24:21.629Z,99365.22
2019-01-02T09:25:24.526Z,99376.24
2019-01-02T09:26:27.796Z,99350.95
2019-01-02T09:27:30.639Z,99354.19
2019-01-02T09:28:41.137Z,99354.19
2019-01-02T09:29:44.035Z,99372.81
2019-01-02T09:30:46.909Z,99372.81
2019-01-02T09:31:52.145Z,99372.55
2019-01-02T09:32:55.781Z,99373.61
2019-01-02T09:33:59.226Z,99374.16
2019-01-02T09:35:04.073Z,99378.26
2019-01-02T09:36:18.931Z,99369.89
2019-01-02T09:37:21.698Z,99379.34
2019-01-02T09:38:24.484Z,99379.34
2019-01-02T09:39:27.702Z,99379.64
2019-01-02T09:40:30.737Z,99398.58
2019-01-02T09:41:33.563Z,99403.65
2019-01-02T09:42:38.136Z,99403.36
2019-01-02T09:43:41.064Z,99402.24
2019-01-02T09:44:43.984Z,99408.36
2019-01-02T09:45:47.071Z,99404.10
2019-01-02T09:46:54.926Z,99402.50
2019-01-02T09:48:00.338Z,99402.50
2019-01-02T09:49:03.314Z,99405.67
2019-01-02T09:50:06.339Z,99403.49
2019-01-02T09:51:09.319Z,99406.77
2019-01-02T09:52:12.518Z,99406.77
2019-01-02T09:53:19.931Z,99412.66
2019-01-02T09:54:23.271Z,99405.42
2019-01-02T09:55:26.486Z,99405.42
2019-01-02T09:56:29.336Z,99426.80
2019-01-02T09:57:32.212Z,99426.80
2019-01-02T09:58:35.370Z,99418.20
2019-01-02T09:59:44.189Z,99419.20
2019-01-02T10:00:50.240Z,99419.20
2019-01-02T10:01:53.159Z,99427.45
2019-01-02T10:02:56.012Z,99432.14
2019-01-02T10:03:59.013Z,99429.97
2019-01-02T10:05:02.173Z,99425.33
2019-01-02T10:06:05.184Z,99425.56
2019-01-02T10:07:08.078Z,99425.27
2019-01-02T10:08:10.887Z,99425.27
2019-01-02T10:09:17.918Z,99428.20
2019-01-02T10:10:22.400Z,99428.20
2019-01-02T10:11:25.770Z,99433.08
2019-01-02T10:12:28.613Z,99432.59
2019-01-02T10:13:31.812Z,99428.23
2019-01-02T10:14:34.755Z,99427.20
2019-01-02T10:15:37.535Z,99437.43
2019-01-02T10:16:40.473Z,99428.23
2019-01-02T10:17:43.651Z,99436.58
2019-01-02T10:18:49.574Z,99434.45
2019-01-02T10:19:52.412Z,99433.19
2019-01-02T10:20:55.855Z,99433.19
2019-01-02T10:21:58.800Z,99434.66
2019-01-02T10:23:01.619Z,99424.38
2019-01-02T10:24:11.331Z,99431.36
2019-01-02T10:25:14.170Z,99421.09
2019-01-02T10:26:17.031Z,99421.09
2019-01-02T10:27:19.974Z,99423.47
2019-01-02T10:28:22.855Z,99419.39
2019-01-02T10:29:26.570Z,99414.50
2019-01-02T10:30:29.673Z,99414.50
2019-01-02T10:31:35.194Z,99415.79
2019-01-02T10:32:37.989Z,99432.09
2019-01-02T10:33:41.092Z,99433.36
2019-01-02T10:34:43.855Z,99432.98
2019-01-02T10:35:48.969Z,99426.70
2019-01-02T10:37:15.341Z,99433.06
2019-01-02T10:38:18.242Z,99433.06
2019-01-02T10:39:21.086Z,99430.39
2019-01-02T10:40:24.089Z,99425.16
2019-01-02T10:41:31.191Z,99431.92
2019-01-02T10:42:34.020Z,99432.21
2019-01-02T10:43:37.400Z,99432.21
2019-01-02T10:44:40.294Z,99439.09
2019-01-02T10:45:43.200Z,99433.37
2019-01-02T10:46:46.037Z,99430.17
2019-01-02T10:47:49.116Z,99430.17
2019-01-02T10:48:52.370Z,99436.63
2019-01-02T10:49:55.217Z,99414.58
2019-01-02T10:50:58.472Z,99430.47
2019-01-02T10:52:01.256Z,99421.73
2019-01-02T10:53:06.252Z,99419.09
2019-01-02T10:54:10.174Z,99413.65
2019-01-02T10:55:18.035Z,99422.31
2019-01-02T10:56:20.839Z,99422.88
2019-01-02T10:57:24.452Z,99404.48
2019-01-02T10:58:27.685Z,99404.48
2019-01-02T10:59:30.560Z,99424.78
2019-01-02T11:00:33.417Z,99421.80
2019-01-02T11:01:36.638Z,99415.50
2019-01-02T11:02:42.162Z,99421.93
2019-01-02T11:03:49.109Z,99413.34
2019-01-02T11:04:51.703Z,99431.11
2019-01-02T11:05:54.639Z,99429.73
2019-01-02T11:06:57.518Z,99424.34
2019-01-02T11:08:00.607Z,99426.80
2019-01-02T11:09:04.415Z,99426.80
2019-01-02T11:10:07.568Z,99434.27
2019-01-02T11:11:10.406Z,99434.27
2019-01-02T11:12:13.271Z,99431.82
2019-01-02T11:13:16.482Z,99429.80
2019-01-02T11:14:22.767Z,99429.80
2019-01-02T11:15:26.699Z,99433.01
2019-01-02T11:16:29.725Z,99440.27
2019-01-02T11:17:32.815Z,99444.33
2019-01-02T11:18:37.917Z,99436.06
2019-01-02T11:19:40.773Z,99436.48
2019-01-02T11:20:43.879Z,99435.66
2019-01-02T11:21:46.679Z,99435.66
2019-01-02T11:22:49.623Z,99434.81
2019-01-02T11:24:02.239Z,99434.81
2019-01-02T11:25:07.149Z,99444.05
2019-01-02T11:26:10.621Z,99444.05
2019-01-02T11:27:13.793Z,99453.91
2019-01-02T11:28:16.817Z,99450.47
2019-01-02T11:29:20.573Z,99453.58
2019-01-02T11:43:08.097Z,99445.09
2019-01-02T11:44:10.940Z,99448.31
2019-01-02T11:45:14.332Z,99452.31
2019-01-02T11:46:17.630Z,99440.66
2019-01-02T11:47:20.518Z,99439.95
2019-01-02T11:48:23.837Z,99437.77
2019-01-02T11:49:26.849Z,99436.38
2019-01-02T11:50:29.911Z,99436.38
2019-01-02T11:51:32.806Z,99433.17
2019-01-02T11:52:35.767Z,99433.17
2019-01-02T11:53:38.797Z,99441.20
2019-01-02T11:54:42.403Z,99437.48
2019-01-02T11:55:45.472Z,99433.70
2019-01-02T11:56:51.302Z,99433.70
2019-01-02T11:57:54.703Z,99443.44
2019-01-02T11:59:00.752Z,99435.30
2019-01-02T12:00:04.409Z,99441.27
2019-01-02T12:01:10.216Z,99441.29
2019-01-02T12:02:13.195Z,99423.59
2019-01-02T12:03:16.162Z,99423.59
2019-01-02T12:04:20.585Z,99440.18
2019-01-02T12:05:24.206Z,99444.52
2019-01-02T12:06:27.130Z,99439.84
2019-01-02T12:07:32.617Z,99442.36
2019-01-02T12:08:35.466Z,99444.97
2019-01-02T12:09:38.319Z,99443.18
2019-01-02T12:10:44.091Z,99440.31
2019-01-02T12:11:49.772Z,99443.18
2019-01-02T12:12:58.067Z,99426.11
2019-01-02T12:14:01.398Z,99446.95
2019-01-02T12:15:04.574Z,99444.41
2019-01-02T12:16:07.400Z,99438.61
2019-01-02T12:17:10.450Z,99437.67
2019-01-02T12:18:13.830Z,99438.03
2019-01-02T12:19:20.101Z,99433.46
2019-01-02T12:20:23.051Z,99438.03
2019-01-02T12:21:25.941Z,99435.56
2019-01-02T12:22:29.910Z,99446.86
2019-01-02T12:23:33.128Z,99438.38
2019-01-02T12:24:36.402Z,99438.38
2019-01-02T12:25:39.755Z,99450.63
2019-01-02T12:26:47.791Z,99459.84
2019-01-02T12:27:51.366Z,99456.08
2019-01-02T12:28:54.322Z,99467.93
2019-01-02T12:29:57.524Z,99461.34
2019-01-02T12:31:00.314Z,99452.99
2019-01-02T12:32:03.583Z,99461.27
2019-01-02T12:33:06.840Z,99457.28
2019-01-02T12:34:15.289Z,99450.51
2019-01-02T12:35:20.806Z,99450.51
2019-01-02T12:36:23.984Z,99448.88
2019-01-02T12:37:27.015Z,99456.98
2019-01-02T12:38:31.914Z,99456.98
2019-01-02T12:39:40.419Z,99466.14
2019-01-02T12:40:42.893Z,99466.14
2019-01-02T12:41:46.040Z,99470.52
2019-01-02T12:42:49.442Z,99465.39
2019-01-02T12:43:52.518Z,99469.73
2019-01-02T12:44:55.480Z,99465.38
2019-01-02T12:45:58.332Z,99452.02
2019-01-02T12:47:01.261Z,99459.50
2019-01-02T12:48:04.206Z,99459.50
2019-01-02T12:49:07.389Z,99461.89
2019-01-02T12:50:10.801Z,99466.20
2019-01-02T12:51:13.612Z,99458.64
2019-01-02T12:52:16.548Z,99458.64